Main page
METAR-TAF:

METAR-TAF

Airports :

Pamplona, Spain

Pamplona Airport

latitude: 42-46N, longitude: 001-38W, elevation: 459 m

Current weather observation

The report was made 22 minutes ago, at 16:30 UTC
Wind 17 kt from the North/Northwest
Temperature 23°C
Humidity 57%
Pressure 1016 hPa
Visibility 10 km or more
Few clouds at a height of 4000 ft

METAR: LEPP 221630Z 33017KT 9999 FEW040 23/14 Q1016

Time: 18:52 (16:52 UTC)

Forecast

The report was made 2 hours and 52 minutes ago, at 14:00 UTC
Forecast valid from 22 at 15 UTC to 23 at 15 UTC
Wind 6 kt from the North/Northwest
Visibility 10 km or more
Scattered clouds at a height of 4000 ft
Temporary
from 22 at 15 UTC to 22 at 18 UTC
Scattered clouds at a height of 4000 ft, Towering cumulus.
Temporary
from 22 at 15 UTC to 22 at 20 UTC
Wind 15 kt from the North/Northwest with gusts up to 25 kt

TAF: LEPP 221400Z 2215/2315 34006KT 9999 SCT040 TX29/2215Z TN13/2305Z TEMPO 2215/2218 SCT040TCU TEMPO 2215/2220 34015G25KT

Weather observations and forecasts of more than 4000 airports (METAR and TAF reports).

The available stations are represented by yellow and red dots on the map.

Hover mouse over dot to see the name of the station.

Then click to see weather observations and forecasts.

To change the map : click on the green buttons with a black cross to zoom in, on the green button with a dash to zoom out, or on the green arrows for adjacent maps.


METAR-TAF: